sensor_id;sensor_type;location;lat;lon;timestamp;temperature;humidity
20998;DHT22;10657;51.276;6.390;2023-08-24T00:00:24;21.60;99.90
20998;DHT22;10657;51.276;6.390;2023-08-24T00:02:51;21.60;99.90
20998;DHT22;10657;51.276;6.390;2023-08-24T00:05:19;21.60;99.90
20998;DHT22;10657;51.276;6.390;2023-08-24T00:07:46;21.50;99.90
20998;DHT22;10657;51.276;6.390;2023-08-24T00:10:15;21.40;99.90
20998;DHT22;10657;51.276;6.390;2023-08-24T00:12:41;21.40;99.90
20998;DHT22;10657;51.276;6.390;2023-08-24T00:15:09;21.30;99.90
20998;DHT22;10657;51.276;6.390;2023-08-24T00:17:37;21.30;99.90
20998;DHT22;10657;51.276;6.390;2023-08-24T00:20:22;21.20;99.90
20998;DHT22;10657;51.276;6.390;2023-08-24T00:23:06;21.20;99.90
20998;DHT22;10657;51.276;6.390;2023-08-24T00:25:33;21.30;99.90
20998;DHT22;10657;51.276;6.390;2023-08-24T00:28:00;21.30;99.90
20998;DHT22;10657;51.276;6.390;2023-08-24T00:30:27;21.20;99.90
20998;DHT22;10657;51.276;6.390;2023-08-24T00:32:53;21.30;99.90
20998;DHT22;10657;51.276;6.390;2023-08-24T00:35:20;21.30;99.90
20998;DHT22;10657;51.276;6.390;2023-08-24T00:37:47;21.30;99.90
20998;DHT22;10657;51.276;6.390;2023-08-24T00:40:14;21.30;99.90
20998;DHT22;10657;51.276;6.390;2023-08-24T00:42:42;21.20;99.90
20998;DHT22;10657;51.276;6.390;2023-08-24T00:45:10;21.20;99.90
20998;DHT22;10657;51.276;6.390;2023-08-24T00:47:45;21.10;99.90
20998;DHT22;10657;51.276;6.390;2023-08-24T00:50:13;21.00;99.90
20998;DHT22;10657;51.276;6.390;2023-08-24T00:52:41;21.00;99.90
20998;DHT22;10657;51.276;6.390;2023-08-24T00:55:09;20.90;99.90
20998;DHT22;10657;51.276;6.390;2023-08-24T00:57:37;20.90;99.90
20998;DHT22;10657;51.276;6.390;2023-08-24T01:00:05;20.80;99.90
20998;DHT22;10657;51.276;6.390;2023-08-24T01:02:32;20.80;99.90
20998;DHT22;10657;51.276;6.390;2023-08-24T01:04:59;20.80;99.90
20998;DHT22;10657;51.276;6.390;2023-08-24T01:07:26;20.80;99.90
20998;DHT22;10657;51.276;6.390;2023-08-24T01:09:53;20.80;99.90
20998;DHT22;10657;51.276;6.390;2023-08-24T01:12:28;20.70;99.90
20998;DHT22;10657;51.276;6.390;2023-08-24T01:15:09;20.70;99.90
20998;DHT22;10657;51.276;6.390;2023-08-24T01:17:39;20.60;99.90
20998;DHT22;10657;51.276;6.390;2023-08-24T01:20:09;20.60;99.90
20998;DHT22;10657;51.276;6.390;2023-08-24T01:28:02;20.70;99.90
20998;DHT22;10657;51.276;6.390;2023-08-24T01:30:29;20.70;99.90
20998;DHT22;10657;51.276;6.390;2023-08-24T01:32:57;20.70;99.90
20998;DHT22;10657;51.276;6.390;2023-08-24T01:35:24;20.60;99.90
20998;DHT22;10657;51.276;6.390;2023-08-24T01:37:50;20.70;99.90
20998;DHT22;10657;51.276;6.390;2023-08-24T01:43:23;20.70;99.90
20998;DHT22;10657;51.276;6.390;2023-08-24T01:46:08;20.60;99.90
20998;DHT22;10657;51.276;6.390;2023-08-24T01:48:36;20.60;99.90
20998;DHT22;10657;51.276;6.390;2023-08-24T01:51:03;20.60;99.90
20998;DHT22;10657;51.276;6.390;2023-08-24T01:53:31;20.60;99.90
20998;DHT22;10657;51.276;6.390;2023-08-24T01:55:58;20.60;99.90
20998;DHT22;10657;51.276;6.390;2023-08-24T01:58:25;20.60;99.90
20998;DHT22;10657;51.276;6.390;2023-08-24T02:00:51;20.50;99.90
20998;DHT22;10657;51.276;6.390;2023-08-24T02:03:18;20.40;99.90
20998;DHT22;10657;51.276;6.390;2023-08-24T02:05:45;20.30;99.90
20998;DHT22;10657;51.276;6.390;2023-08-24T02:08:12;20.30;99.90
20998;DHT22;10657;51.276;6.390;2023-08-24T02:10:38;20.30;99.90
20998;DHT22;10657;51.276;6.390;2023-08-24T02:13:05;20.30;99.90
20998;DHT22;10657;51.276;6.390;2023-08-24T02:15:31;20.20;99.90
20998;DHT22;10657;51.276;6.390;2023-08-24T02:17:58;20.30;99.90
20998;DHT22;10657;51.276;6.390;2023-08-24T02:20:25;20.20;99.90
20998;DHT22;10657;51.276;6.390;2023-08-24T02:22:52;20.30;99.90
20998;DHT22;10657;51.276;6.390;2023-08-24T02:25:18;20.10;99.90
20998;DHT22;10657;51.276;6.390;2023-08-24T02:27:45;20.00;99.90
20998;DHT22;10657;51.276;6.390;2023-08-24T02:30:12;20.00;99.90
20998;DHT22;10657;51.276;6.390;2023-08-24T02:32:39;19.90;99.90
20998;DHT22;10657;51.276;6.390;2023-08-24T02:35:06;19.90;99.90
20998;DHT22;10657;51.276;6.390;2023-08-24T02:37:34;20.00;99.90
20998;DHT22;10657;51.276;6.390;2023-08-24T02:40:00;20.00;99.90
20998;DHT22;10657;51.276;6.390;2023-08-24T02:42:28;20.00;99.90
20998;DHT22;10657;51.276;6.390;2023-08-24T02:44:56;20.10;99.90
20998;DHT22;10657;51.276;6.390;2023-08-24T02:47:23;20.10;99.90
20998;DHT22;10657;51.276;6.390;2023-08-24T02:49:49;20.10;99.90
20998;DHT22;10657;51.276;6.390;2023-08-24T02:52:16;20.10;99.90
20998;DHT22;10657;51.276;6.390;2023-08-24T02:54:43;20.10;99.90
20998;DHT22;10657;51.276;6.390;2023-08-24T02:57:09;20.10;99.90
20998;DHT22;10657;51.276;6.390;2023-08-24T02:59:36;20.10;99.90
20998;DHT22;10657;51.276;6.390;2023-08-24T03:02:03;20.10;99.90
20998;DHT22;10657;51.276;6.390;2023-08-24T03:04:31;20.10;99.90
20998;DHT22;10657;51.276;6.390;2023-08-24T03:06:57;19.90;99.90
20998;DHT22;10657;51.276;6.390;2023-08-24T03:09:24;19.90;99.90
20998;DHT22;10657;51.276;6.390;2023-08-24T03:11:50;19.90;99.90
20998;DHT22;10657;51.276;6.390;2023-08-24T03:14:17;19.90;99.90
20998;DHT22;10657;51.276;6.390;2023-08-24T03:16:45;19.90;99.90
20998;DHT22;10657;51.276;6.390;2023-08-24T03:19:12;20.00;99.90
20998;DHT22;10657;51.276;6.390;2023-08-24T03:21:40;19.90;99.90
20998;DHT22;10657;51.276;6.390;2023-08-24T03:24:07;19.80;99.90
20998;DHT22;10657;51.276;6.390;2023-08-24T03:26:34;19.70;99.90
20998;DHT22;10657;51.276;6.390;2023-08-24T03:29:00;19.70;99.90
20998;DHT22;10657;51.276;6.390;2023-08-24T03:31:27;19.80;99.90
20998;DHT22;10657;51.276;6.390;2023-08-24T03:33:54;19.90;99.90
20998;DHT22;10657;51.276;6.390;2023-08-24T03:36:20;20.00;99.90
20998;DHT22;10657;51.276;6.390;2023-08-24T03:38:47;20.00;99.90
20998;DHT22;10657;51.276;6.390;2023-08-24T03:41:14;20.10;99.90
20998;DHT22;10657;51.276;6.390;2023-08-24T03:43:40;20.00;99.90
20998;DHT22;10657;51.276;6.390;2023-08-24T03:46:07;20.00;99.90
20998;DHT22;10657;51.276;6.390;2023-08-24T03:48:34;19.90;99.90
20998;DHT22;10657;51.276;6.390;2023-08-24T03:51:01;20.00;99.90
20998;DHT22;10657;51.276;6.390;2023-08-24T03:53:28;20.00;99.90
20998;DHT22;10657;51.276;6.390;2023-08-24T03:55:54;19.90;99.90
20998;DHT22;10657;51.276;6.390;2023-08-24T03:58:21;20.00;99.90
20998;DHT22;10657;51.276;6.390;2023-08-24T04:00:48;20.10;99.90
20998;DHT22;10657;51.276;6.390;2023-08-24T04:03:15;20.20;99.90
20998;DHT22;10657;51.276;6.390;2023-08-24T04:05:42;20.10;99.90
20998;DHT22;10657;51.276;6.390;2023-08-24T04:08:08;20.10;99.90
20998;DHT22;10657;51.276;6.390;2023-08-24T04:10:37;20.00;99.90
20998;DHT22;10657;51.276;6.390;2023-08-24T04:13:04;19.90;99.90
20998;DHT22;10657;51.276;6.390;2023-08-24T04:15:31;20.00;99.90
20998;DHT22;10657;51.276;6.390;2023-08-24T04:17:57;19.90;99.90
20998;DHT22;10657;51.276;6.390;2023-08-24T04:20:24;19.90;99.90
20998;DHT22;10657;51.276;6.390;2023-08-24T04:22:51;19.90;99.90
20998;DHT22;10657;51.276;6.390;2023-08-24T04:25:18;19.90;99.90
20998;DHT22;10657;51.276;6.390;2023-08-24T04:27:44;19.90;99.90
20998;DHT22;10657;51.276;6.390;2023-08-24T04:30:11;19.90;99.90
20998;DHT22;10657;51.276;6.390;2023-08-24T04:32:39;19.80;99.90
20998;DHT22;10657;51.276;6.390;2023-08-24T04:35:06;19.90;99.90
20998;DHT22;10657;51.276;6.390;2023-08-24T04:37:33;19.90;99.90
20998;DHT22;10657;51.276;6.390;2023-08-24T04:39:59;20.00;99.90
20998;DHT22;10657;51.276;6.390;2023-08-24T04:42:26;19.90;99.90
20998;DHT22;10657;51.276;6.390;2023-08-24T04:44:53;19.90;99.90
20998;DHT22;10657;51.276;6.390;2023-08-24T04:47:19;19.90;99.90
20998;DHT22;10657;51.276;6.390;2023-08-24T04:49:46;20.00;99.90
20998;DHT22;10657;51.276;6.390;2023-08-24T04:52:13;20.10;99.90
20998;DHT22;10657;51.276;6.390;2023-08-24T04:54:40;20.10;99.90
20998;DHT22;10657;51.276;6.390;2023-08-24T04:57:07;20.00;99.90
20998;DHT22;10657;51.276;6.390;2023-08-24T04:59:34;19.90;99.90
20998;DHT22;10657;51.276;6.390;2023-08-24T05:02:00;19.80;99.90
20998;DHT22;10657;51.276;6.390;2023-08-24T05:04:27;19.80;99.90
20998;DHT22;10657;51.276;6.390;2023-08-24T05:06:54;19.80;99.90
20998;DHT22;10657;51.276;6.390;2023-08-24T05:09:20;19.80;99.90
20998;DHT22;10657;51.276;6.390;2023-08-24T05:11:48;19.70;99.90
20998;DHT22;10657;51.276;6.390;2023-08-24T05:14:14;19.80;99.90
20998;DHT22;10657;51.276;6.390;2023-08-24T05:16:41;19.90;99.90
20998;DHT22;10657;51.276;6.390;2023-08-24T05:19:08;19.90;99.90
20998;DHT22;10657;51.276;6.390;2023-08-24T05:21:34;19.90;99.90
20998;DHT22;10657;51.276;6.390;2023-08-24T05:24:01;19.80;99.90
20998;DHT22;10657;51.276;6.390;2023-08-24T05:26:28;19.80;99.90
20998;DHT22;10657;51.276;6.390;2023-08-24T05:28:54;19.80;99.90
20998;DHT22;10657;51.276;6.390;2023-08-24T05:31:21;19.70;99.90
20998;DHT22;10657;51.276;6.390;2023-08-24T05:33:48;19.70;99.90
20998;DHT22;10657;51.276;6.390;2023-08-24T05:36:15;19.80;99.90
20998;DHT22;10657;51.276;6.390;2023-08-24T05:38:41;19.70;99.90
20998;DHT22;10657;51.276;6.390;2023-08-24T05:41:30;19.80;99.90
20998;DHT22;10657;51.276;6.390;2023-08-24T05:43:58;19.80;99.90
20998;DHT22;10657;51.276;6.390;2023-08-24T05:46:24;19.80;99.90
20998;DHT22;10657;51.276;6.390;2023-08-24T05:48:51;19.90;99.90
20998;DHT22;10657;51.276;6.390;2023-08-24T05:51:18;19.90;99.90
20998;DHT22;10657;51.276;6.390;2023-08-24T05:53:44;19.90;99.90
20998;DHT22;10657;51.276;6.390;2023-08-24T05:56:11;19.80;99.90
20998;DHT22;10657;51.276;6.390;2023-08-24T05:58:38;19.80;99.90
20998;DHT22;10657;51.276;6.390;2023-08-24T06:01:05;19.90;99.90
20998;DHT22;10657;51.276;6.390;2023-08-24T06:03:31;19.90;99.90
20998;DHT22;10657;51.276;6.390;2023-08-24T06:06:02;19.80;99.90
20998;DHT22;10657;51.276;6.390;2023-08-24T06:08:29;19.80;99.90
20998;DHT22;10657;51.276;6.390;2023-08-24T06:10:57;19.90;99.90
20998;DHT22;10657;51.276;6.390;2023-08-24T06:13:24;20.00;99.90
20998;DHT22;10657;51.276;6.390;2023-08-24T06:15:51;20.00;99.90
20998;DHT22;10657;51.276;6.390;2023-08-24T06:18:17;20.10;99.90
20998;DHT22;10657;51.276;6.390;2023-08-24T06:20:44;20.10;99.90
20998;DHT22;10657;51.276;6.390;2023-08-24T06:23:12;20.10;99.90
20998;DHT22;10657;51.276;6.390;2023-08-24T06:25:42;20.10;99.90
20998;DHT22;10657;51.276;6.390;2023-08-24T06:28:08;20.10;99.90
20998;DHT22;10657;51.276;6.390;2023-08-24T06:30:42;20.20;99.90
20998;DHT22;10657;51.276;6.390;2023-08-24T06:33:17;20.20;99.90
20998;DHT22;10657;51.276;6.390;2023-08-24T06:35:43;20.20;99.90
20998;DHT22;10657;51.276;6.390;2023-08-24T06:38:10;20.30;99.90
20998;DHT22;10657;51.276;6.390;2023-08-24T06:40:38;20.30;99.90
20998;DHT22;10657;51.276;6.390;2023-08-24T06:43:05;20.30;99.90
20998;DHT22;10657;51.276;6.390;2023-08-24T06:45:31;20.40;99.90
20998;DHT22;10657;51.276;6.390;2023-08-24T06:47:58;20.50;99.90
20998;DHT22;10657;51.276;6.390;2023-08-24T06:50:25;20.60;99.90
20998;DHT22;10657;51.276;6.390;2023-08-24T06:52:52;20.80;99.90
20998;DHT22;10657;51.276;6.390;2023-08-24T06:55:19;20.80;99.90
20998;DHT22;10657;51.276;6.390;2023-08-24T06:57:48;20.90;99.90
20998;DHT22;10657;51.276;6.390;2023-08-24T07:00:17;20.90;99.90
20998;DHT22;10657;51.276;6.390;2023-08-24T07:02:49;20.90;99.90
20998;DHT22;10657;51.276;6.390;2023-08-24T07:05:16;20.90;99.90
20998;DHT22;10657;51.276;6.390;2023-08-24T07:07:47;20.90;99.90
20998;DHT22;10657;51.276;6.390;2023-08-24T07:10:15;21.10;99.90
20998;DHT22;10657;51.276;6.390;2023-08-24T07:12:42;21.10;99.90
20998;DHT22;10657;51.276;6.390;2023-08-24T07:15:12;21.20;99.90
20998;DHT22;10657;51.276;6.390;2023-08-24T07:17:39;21.20;99.90
20998;DHT22;10657;51.276;6.390;2023-08-24T07:20:06;21.30;99.90
20998;DHT22;10657;51.276;6.390;2023-08-24T07:22:34;21.30;99.90
20998;DHT22;10657;51.276;6.390;2023-08-24T07:25:01;21.40;99.90
20998;DHT22;10657;51.276;6.390;2023-08-24T07:27:34;21.40;99.90
20998;DHT22;10657;51.276;6.390;2023-08-24T07:30:02;21.40;99.90
20998;DHT22;10657;51.276;6.390;2023-08-24T07:32:56;21.40;99.90
20998;DHT22;10657;51.276;6.390;2023-08-24T07:35:22;21.50;99.90
20998;DHT22;10657;51.276;6.390;2023-08-24T07:37:51;21.50;99.90
20998;DHT22;10657;51.276;6.390;2023-08-24T07:40:18;21.50;99.90
20998;DHT22;10657;51.276;6.390;2023-08-24T07:42:50;21.50;99.90
20998;DHT22;10657;51.276;6.390;2023-08-24T07:45:19;21.60;99.90
20998;DHT22;10657;51.276;6.390;2023-08-24T07:47:46;21.60;99.90
20998;DHT22;10657;51.276;6.390;2023-08-24T07:50:13;21.70;99.90
20998;DHT22;10657;51.276;6.390;2023-08-24T07:52:40;21.70;99.90
20998;DHT22;10657;51.276;6.390;2023-08-24T07:55:08;21.70;99.90
20998;DHT22;10657;51.276;6.390;2023-08-24T07:57:35;21.80;99.90
20998;DHT22;10657;51.276;6.390;2023-08-24T08:00:03;21.80;99.90
20998;DHT22;10657;51.276;6.390;2023-08-24T08:02:35;21.90;99.90
20998;DHT22;10657;51.276;6.390;2023-08-24T08:05:04;22.00;99.90
20998;DHT22;10657;51.276;6.390;2023-08-24T08:07:31;22.00;99.90
20998;DHT22;10657;51.276;6.390;2023-08-24T08:09:57;22.10;99.90
20998;DHT22;10657;51.276;6.390;2023-08-24T08:12:24;22.20;99.90
20998;DHT22;10657;51.276;6.390;2023-08-24T08:14:51;22.20;99.90
20998;DHT22;10657;51.276;6.390;2023-08-24T08:17:17;22.30;99.90
20998;DHT22;10657;51.276;6.390;2023-08-24T08:19:44;22.40;99.90
20998;DHT22;10657;51.276;6.390;2023-08-24T08:22:12;22.50;99.90
20998;DHT22;10657;51.276;6.390;2023-08-24T08:24:39;22.50;99.90
20998;DHT22;10657;51.276;6.390;2023-08-24T08:27:05;22.60;99.90
20998;DHT22;10657;51.276;6.390;2023-08-24T08:29:32;22.60;99.90
20998;DHT22;10657;51.276;6.390;2023-08-24T08:31:59;22.70;99.90
20998;DHT22;10657;51.276;6.390;2023-08-24T08:34:26;22.70;99.90
20998;DHT22;10657;51.276;6.390;2023-08-24T08:36:52;22.70;99.90
20998;DHT22;10657;51.276;6.390;2023-08-24T08:39:19;22.80;99.90
20998;DHT22;10657;51.276;6.390;2023-08-24T08:41:49;22.80;99.90
20998;DHT22;10657;51.276;6.390;2023-08-24T08:44:15;22.90;99.90
20998;DHT22;10657;51.276;6.390;2023-08-24T08:46:43;22.90;99.90
20998;DHT22;10657;51.276;6.390;2023-08-24T08:49:12;23.00;99.90
20998;DHT22;10657;51.276;6.390;2023-08-24T08:51:42;23.00;99.90
20998;DHT22;10657;51.276;6.390;2023-08-24T08:54:09;23.10;99.90
20998;DHT22;10657;51.276;6.390;2023-08-24T08:56:36;23.20;99.90
20998;DHT22;10657;51.276;6.390;2023-08-24T08:59:07;23.20;99.90
20998;DHT22;10657;51.276;6.390;2023-08-24T09:01:34;23.20;99.90
20998;DHT22;10657;51.276;6.390;2023-08-24T09:04:02;23.30;99.90
20998;DHT22;10657;51.276;6.390;2023-08-24T09:06:29;23.30;99.90
20998;DHT22;10657;51.276;6.390;2023-08-24T09:08:56;23.40;99.90
20998;DHT22;10657;51.276;6.390;2023-08-24T09:11:23;23.50;99.90
20998;DHT22;10657;51.276;6.390;2023-08-24T09:13:50;23.60;99.90
20998;DHT22;10657;51.276;6.390;2023-08-24T09:16:17;23.60;99.90
20998;DHT22;10657;51.276;6.390;2023-08-24T09:18:46;23.70;99.90
20998;DHT22;10657;51.276;6.390;2023-08-24T09:21:16;23.70;99.90
20998;DHT22;10657;51.276;6.390;2023-08-24T09:23:55;23.80;99.90
20998;DHT22;10657;51.276;6.390;2023-08-24T09:26:29;23.90;99.90
20998;DHT22;10657;51.276;6.390;2023-08-24T09:28:57;23.90;99.90
20998;DHT22;10657;51.276;6.390;2023-08-24T09:31:35;23.90;99.90
20998;DHT22;10657;51.276;6.390;2023-08-24T09:34:03;24.00;99.90
20998;DHT22;10657;51.276;6.390;2023-08-24T09:36:36;24.10;99.90
20998;DHT22;10657;51.276;6.390;2023-08-24T09:39:04;24.20;99.90
20998;DHT22;10657;51.276;6.390;2023-08-24T09:41:44;24.20;99.90
20998;DHT22;10657;51.276;6.390;2023-08-24T09:44:11;24.30;99.90
20998;DHT22;10657;51.276;6.390;2023-08-24T09:46:39;24.30;99.90
20998;DHT22;10657;51.276;6.390;2023-08-24T09:49:08;24.40;99.90
20998;DHT22;10657;51.276;6.390;2023-08-24T09:51:36;24.40;99.90
20998;DHT22;10657;51.276;6.390;2023-08-24T09:54:08;24.50;99.90
20998;DHT22;10657;51.276;6.390;2023-08-24T09:56:37;24.60;99.90
20998;DHT22;10657;51.276;6.390;2023-08-24T10:01:46;24.60;99.90
20998;DHT22;10657;51.276;6.390;2023-08-24T10:04:17;24.70;99.90
20998;DHT22;10657;51.276;6.390;2023-08-24T10:06:48;24.70;99.90
20998;DHT22;10657;51.276;6.390;2023-08-24T10:09:24;24.80;99.90
20998;DHT22;10657;51.276;6.390;2023-08-24T10:11:56;24.90;99.90
20998;DHT22;10657;51.276;6.390;2023-08-24T10:14:32;25.00;99.90
20998;DHT22;10657;51.276;6.390;2023-08-24T10:17:01;25.10;99.90
20998;DHT22;10657;51.276;6.390;2023-08-24T10:19:28;25.10;99.90
20998;DHT22;10657;51.276;6.390;2023-08-24T10:21:55;25.10;99.90
20998;DHT22;10657;51.276;6.390;2023-08-24T10:24:23;25.10;99.90
20998;DHT22;10657;51.276;6.390;2023-08-24T10:26:50;25.10;99.90
20998;DHT22;10657;51.276;6.390;2023-08-24T10:29:20;25.20;99.90
20998;DHT22;10657;51.276;6.390;2023-08-24T10:31:48;25.30;99.90
20998;DHT22;10657;51.276;6.390;2023-08-24T10:34:16;25.40;99.90
20998;DHT22;10657;51.276;6.390;2023-08-24T10:36:43;25.30;99.90
20998;DHT22;10657;51.276;6.390;2023-08-24T10:39:09;25.40;99.90
20998;DHT22;10657;51.276;6.390;2023-08-24T10:41:58;25.50;99.90
20998;DHT22;10657;51.276;6.390;2023-08-24T10:44:37;25.40;99.90
20998;DHT22;10657;51.276;6.390;2023-08-24T10:47:21;25.50;99.90
20998;DHT22;10657;51.276;6.390;2023-08-24T10:54:50;25.60;99.90
20998;DHT22;10657;51.276;6.390;2023-08-24T10:57:21;25.60;99.90
20998;DHT22;10657;51.276;6.390;2023-08-24T11:00:20;25.60;99.90
20998;DHT22;10657;51.276;6.390;2023-08-24T11:02:50;25.60;99.90
20998;DHT22;10657;51.276;6.390;2023-08-24T11:05:27;25.70;99.90
20998;DHT22;10657;51.276;6.390;2023-08-24T11:08:06;25.60;99.90
20998;DHT22;10657;51.276;6.390;2023-08-24T11:13:13;25.60;99.90
20998;DHT22;10657;51.276;6.390;2023-08-24T11:15:44;25.60;99.90
20998;DHT22;10657;51.276;6.390;2023-08-24T11:21:07;25.60;99.90
20998;DHT22;10657;51.276;6.390;2023-08-24T11:23:34;25.50;99.90
20998;DHT22;10657;51.276;6.390;2023-08-24T11:26:01;25.50;99.90
20998;DHT22;10657;51.276;6.390;2023-08-24T11:28:30;25.50;99.90
20998;DHT22;10657;51.276;6.390;2023-08-24T11:30:57;25.60;99.90
20998;DHT22;10657;51.276;6.390;2023-08-24T11:33:43;25.60;99.90
20998;DHT22;10657;51.276;6.390;2023-08-24T11:36:09;25.60;99.90
20998;DHT22;10657;51.276;6.390;2023-08-24T11:38:41;25.70;99.90
20998;DHT22;10657;51.276;6.390;2023-08-24T11:41:15;25.70;99.90
20998;DHT22;10657;51.276;6.390;2023-08-24T11:43:43;25.80;99.90
20998;DHT22;10657;51.276;6.390;2023-08-24T11:46:11;25.80;99.90
20998;DHT22;10657;51.276;6.390;2023-08-24T11:48:38;25.80;99.90
20998;DHT22;10657;51.276;6.390;2023-08-24T11:51:10;25.80;99.90
20998;DHT22;10657;51.276;6.390;2023-08-24T11:53:43;25.70;99.90
20998;DHT22;10657;51.276;6.390;2023-08-24T11:56:10;25.60;99.90
20998;DHT22;10657;51.276;6.390;2023-08-24T11:58:42;25.50;99.90
20998;DHT22;10657;51.276;6.390;2023-08-24T12:01:10;25.40;99.90
20998;DHT22;10657;51.276;6.390;2023-08-24T12:03:40;25.30;99.90
20998;DHT22;10657;51.276;6.390;2023-08-24T12:06:12;25.10;99.90
20998;DHT22;10657;51.276;6.390;2023-08-24T12:08:44;24.90;99.90
20998;DHT22;10657;51.276;6.390;2023-08-24T12:13:46;24.40;99.90
20998;DHT22;10657;51.276;6.390;2023-08-24T12:16:18;24.10;99.90
20998;DHT22;10657;51.276;6.390;2023-08-24T12:18:56;24.00;99.90
20998;DHT22;10657;51.276;6.390;2023-08-24T12:21:26;24.00;99.90
20998;DHT22;10657;51.276;6.390;2023-08-24T12:23:56;24.00;99.90
20998;DHT22;10657;51.276;6.390;2023-08-24T12:26:23;24.00;99.90
20998;DHT22;10657;51.276;6.390;2023-08-24T12:28:51;23.90;99.90
20998;DHT22;10657;51.276;6.390;2023-08-24T12:31:19;24.00;99.90
20998;DHT22;10657;51.276;6.390;2023-08-24T12:34:03;24.10;99.90
20998;DHT22;10657;51.276;6.390;2023-08-24T12:36:35;24.30;99.90
20998;DHT22;10657;51.276;6.390;2023-08-24T12:39:04;24.30;99.90
20998;DHT22;10657;51.276;6.390;2023-08-24T12:41:31;24.50;99.90
20998;DHT22;10657;51.276;6.390;2023-08-24T12:43:58;24.50;99.90
20998;DHT22;10657;51.276;6.390;2023-08-24T12:46:25;24.50;99.90
20998;DHT22;10657;51.276;6.390;2023-08-24T12:48:54;24.50;99.90
20998;DHT22;10657;51.276;6.390;2023-08-24T12:51:22;24.60;99.90
20998;DHT22;10657;51.276;6.390;2023-08-24T12:53:51;24.70;99.90
20998;DHT22;10657;51.276;6.390;2023-08-24T12:56:17;24.80;99.90
20998;DHT22;10657;51.276;6.390;2023-08-24T12:58:44;24.90;99.90
20998;DHT22;10657;51.276;6.390;2023-08-24T13:01:11;25.00;99.90
20998;DHT22;10657;51.276;6.390;2023-08-24T13:03:38;25.00;99.90
20998;DHT22;10657;51.276;6.390;2023-08-24T13:06:06;25.10;99.90
20998;DHT22;10657;51.276;6.390;2023-08-24T13:08:49;25.00;99.90
20998;DHT22;10657;51.276;6.390;2023-08-24T13:11:16;25.00;99.90
20998;DHT22;10657;51.276;6.390;2023-08-24T13:13:42;25.00;99.90
20998;DHT22;10657;51.276;6.390;2023-08-24T13:16:09;25.10;99.90
20998;DHT22;10657;51.276;6.390;2023-08-24T13:18:36;24.90;99.90
20998;DHT22;10657;51.276;6.390;2023-08-24T13:21:03;24.80;99.90
20998;DHT22;10657;51.276;6.390;2023-08-24T13:23:29;24.80;99.90
20998;DHT22;10657;51.276;6.390;2023-08-24T13:25:59;24.80;99.90
20998;DHT22;10657;51.276;6.390;2023-08-24T13:28:26;24.70;99.90
20998;DHT22;10657;51.276;6.390;2023-08-24T13:30:54;24.80;99.90
20998;DHT22;10657;51.276;6.390;2023-08-24T13:33:21;24.70;99.90
20998;DHT22;10657;51.276;6.390;2023-08-24T13:35:47;24.70;99.90
20998;DHT22;10657;51.276;6.390;2023-08-24T13:38:14;24.70;99.90
20998;DHT22;10657;51.276;6.390;2023-08-24T13:40:40;24.70;99.90
20998;DHT22;10657;51.276;6.390;2023-08-24T13:43:07;24.70;99.90
20998;DHT22;10657;51.276;6.390;2023-08-24T13:45:34;24.70;99.90
20998;DHT22;10657;51.276;6.390;2023-08-24T13:48:01;24.70;99.90
20998;DHT22;10657;51.276;6.390;2023-08-24T13:50:29;24.70;99.90
20998;DHT22;10657;51.276;6.390;2023-08-24T13:52:55;24.70;99.90
20998;DHT22;10657;51.276;6.390;2023-08-24T13:55:23;24.70;99.90
20998;DHT22;10657;51.276;6.390;2023-08-24T13:57:50;24.70;99.90
20998;DHT22;10657;51.276;6.390;2023-08-24T14:00:18;24.70;99.90
20998;DHT22;10657;51.276;6.390;2023-08-24T14:02:44;24.60;99.90
20998;DHT22;10657;51.276;6.390;2023-08-24T14:05:11;24.60;99.90
20998;DHT22;10657;51.276;6.390;2023-08-24T14:07:39;24.60;99.90
20998;DHT22;10657;51.276;6.390;2023-08-24T14:10:07;24.60;99.90
20998;DHT22;10657;51.276;6.390;2023-08-24T14:12:34;24.50;99.90
20998;DHT22;10657;51.276;6.390;2023-08-24T14:15:01;24.40;99.90
20998;DHT22;10657;51.276;6.390;2023-08-24T14:17:28;24.30;99.90
20998;DHT22;10657;51.276;6.390;2023-08-24T14:19:55;24.30;99.90
20998;DHT22;10657;51.276;6.390;2023-08-24T14:22:22;24.30;99.90
20998;DHT22;10657;51.276;6.390;2023-08-24T14:24:48;24.30;99.90
20998;DHT22;10657;51.276;6.390;2023-08-24T14:27:15;24.30;99.90
20998;DHT22;10657;51.276;6.390;2023-08-24T14:29:42;24.20;99.90
20998;DHT22;10657;51.276;6.390;2023-08-24T14:32:08;24.20;99.90
20998;DHT22;10657;51.276;6.390;2023-08-24T14:34:35;24.10;99.90
20998;DHT22;10657;51.276;6.390;2023-08-24T14:37:02;24.00;99.90
20998;DHT22;10657;51.276;6.390;2023-08-24T14:39:29;24.00;99.90
20998;DHT22;10657;51.276;6.390;2023-08-24T14:41:56;23.90;99.90
20998;DHT22;10657;51.276;6.390;2023-08-24T14:44:23;23.90;99.90
20998;DHT22;10657;51.276;6.390;2023-08-24T14:46:49;23.70;99.90
20998;DHT22;10657;51.276;6.390;2023-08-24T14:49:16;23.80;99.90
20998;DHT22;10657;51.276;6.390;2023-08-24T14:51:46;23.70;99.90
20998;DHT22;10657;51.276;6.390;2023-08-24T14:54:13;23.70;99.90
20998;DHT22;10657;51.276;6.390;2023-08-24T14:56:41;23.60;99.90
20998;DHT22;10657;51.276;6.390;2023-08-24T14:59:08;23.50;99.90
20998;DHT22;10657;51.276;6.390;2023-08-24T15:01:34;23.40;99.90
20998;DHT22;10657;51.276;6.390;2023-08-24T15:04:01;23.40;99.90
20998;DHT22;10657;51.276;6.390;2023-08-24T15:06:28;23.30;99.90
20998;DHT22;10657;51.276;6.390;2023-08-24T15:08:55;23.20;99.90
20998;DHT22;10657;51.276;6.390;2023-08-24T15:11:22;23.00;99.90
20998;DHT22;10657;51.276;6.390;2023-08-24T15:13:48;22.90;99.90
20998;DHT22;10657;51.276;6.390;2023-08-24T15:16:15;22.80;99.90
20998;DHT22;10657;51.276;6.390;2023-08-24T15:18:42;22.80;99.90
20998;DHT22;10657;51.276;6.390;2023-08-24T15:21:09;22.80;99.90
20998;DHT22;10657;51.276;6.390;2023-08-24T15:23:36;22.80;99.90
20998;DHT22;10657;51.276;6.390;2023-08-24T15:26:02;22.80;99.90
20998;DHT22;10657;51.276;6.390;2023-08-24T15:28:36;22.70;99.90
20998;DHT22;10657;51.276;6.390;2023-08-24T15:31:03;22.70;99.90
20998;DHT22;10657;51.276;6.390;2023-08-24T15:33:31;22.80;99.90
20998;DHT22;10657;51.276;6.390;2023-08-24T15:35:57;22.70;99.90
20998;DHT22;10657;51.276;6.390;2023-08-24T15:38:24;22.70;99.90
20998;DHT22;10657;51.276;6.390;2023-08-24T15:40:54;22.60;99.90
20998;DHT22;10657;51.276;6.390;2023-08-24T15:43:20;22.60;99.90
20998;DHT22;10657;51.276;6.390;2023-08-24T15:45:49;22.60;99.90
20998;DHT22;10657;51.276;6.390;2023-08-24T15:48:17;22.50;99.90
20998;DHT22;10657;51.276;6.390;2023-08-24T15:50:44;22.50;99.90
20998;DHT22;10657;51.276;6.390;2023-08-24T15:53:11;22.50;99.90
20998;DHT22;10657;51.276;6.390;2023-08-24T15:55:37;22.60;99.90
20998;DHT22;10657;51.276;6.390;2023-08-24T15:58:04;22.60;99.90
20998;DHT22;10657;51.276;6.390;2023-08-24T16:00:31;22.60;99.90